sensor_id;sensor_type;location;lat;lon;timestamp;temperature;humidity
78516;SHT31;67815;51.990;5.688;2023-05-29T00:00:20;16.2;55.5
78516;SHT31;67815;51.990;5.688;2023-05-29T00:02:50;16.2;55.6
78516;SHT31;67815;51.990;5.688;2023-05-29T00:05:19;16.1;55.7
78516;SHT31;67815;51.990;5.688;2023-05-29T00:07:49;16.1;55.8
78516;SHT31;67815;51.990;5.688;2023-05-29T00:10:19;16.0;56.0
78516;SHT31;67815;51.990;5.688;2023-05-29T00:12:49;16.0;56.0
78516;SHT31;67815;51.990;5.688;2023-05-29T00:15:20;16.0;56.0
78516;SHT31;67815;51.990;5.688;2023-05-29T00:17:50;15.9;56.2
78516;SHT31;67815;51.990;5.688;2023-05-29T00:20:20;15.9;56.3
78516;SHT31;67815;51.990;5.688;2023-05-29T00:22:49;15.9;56.5
78516;SHT31;67815;51.990;5.688;2023-05-29T00:25:19;15.8;56.6
78516;SHT31;67815;51.990;5.688;2023-05-29T00:27:48;15.7;56.9
78516;SHT31;67815;51.990;5.688;2023-05-29T00:30:18;15.7;57.0
78516;SHT31;67815;51.990;5.688;2023-05-29T00:32:48;15.6;57.3
78516;SHT31;67815;51.990;5.688;2023-05-29T00:35:19;15.6;57.2
78516;SHT31;67815;51.990;5.688;2023-05-29T00:37:49;15.6;57.4
78516;SHT31;67815;51.990;5.688;2023-05-29T00:40:21;15.6;57.3
78516;SHT31;67815;51.990;5.688;2023-05-29T00:42:51;15.5;57.4
78516;SHT31;67815;51.990;5.688;2023-05-29T00:45:23;15.5;57.3
78516;SHT31;67815;51.990;5.688;2023-05-29T00:47:54;15.5;57.4
78516;SHT31;67815;51.990;5.688;2023-05-29T00:50:23;15.4;57.5
78516;SHT31;67815;51.990;5.688;2023-05-29T00:52:56;15.4;57.3
78516;SHT31;67815;51.990;5.688;2023-05-29T00:55:26;15.4;57.5
78516;SHT31;67815;51.990;5.688;2023-05-29T00:57:57;15.4;57.4
78516;SHT31;67815;51.990;5.688;2023-05-29T01:00:27;15.4;57.2
78516;SHT31;67815;51.990;5.688;2023-05-29T01:03:00;15.3;57.1
78516;SHT31;67815;51.990;5.688;2023-05-29T01:05:35;15.3;56.9
78516;SHT31;67815;51.990;5.688;2023-05-29T01:08:07;15.3;56.9
78516;SHT31;67815;51.990;5.688;2023-05-29T01:10:37;15.3;56.7
78516;SHT31;67815;51.990;5.688;2023-05-29T01:13:18;15.3;56.8
78516;SHT31;67815;51.990;5.688;2023-05-29T01:15:54;15.3;56.7
78516;SHT31;67815;51.990;5.688;2023-05-29T01:18:41;15.2;56.9
78516;SHT31;67815;51.990;5.688;2023-05-29T01:21:22;15.2;56.9
78516;SHT31;67815;51.990;5.688;2023-05-29T01:24:03;15.2;56.8
78516;SHT31;67815;51.990;5.688;2023-05-29T01:26:50;15.2;56.8
78516;SHT31;67815;51.990;5.688;2023-05-29T01:29:23;15.1;57.0
78516;SHT31;67815;51.990;5.688;2023-05-29T01:31:54;15.1;56.9
78516;SHT31;67815;51.990;5.688;2023-05-29T01:34:25;15.1;57.0
78516;SHT31;67815;51.990;5.688;2023-05-29T01:36:55;15.1;57.0
78516;SHT31;67815;51.990;5.688;2023-05-29T01:39:26;15.0;57.1
78516;SHT31;67815;51.990;5.688;2023-05-29T01:41:58;15.0;57.2
78516;SHT31;67815;51.990;5.688;2023-05-29T01:44:29;15.0;57.3
78516;SHT31;67815;51.990;5.688;2023-05-29T01:47:05;15.0;57.2
78516;SHT31;67815;51.990;5.688;2023-05-29T01:49:36;14.9;57.3
78516;SHT31;67815;51.990;5.688;2023-05-29T01:52:07;14.9;57.5
78516;SHT31;67815;51.990;5.688;2023-05-29T01:54:37;14.9;57.7
78516;SHT31;67815;51.990;5.688;2023-05-29T01:57:09;14.9;57.8
78516;SHT31;67815;51.990;5.688;2023-05-29T01:59:39;14.8;57.7
78516;SHT31;67815;51.990;5.688;2023-05-29T02:02:10;14.8;57.8
78516;SHT31;67815;51.990;5.688;2023-05-29T02:04:41;14.8;58.0
78516;SHT31;67815;51.990;5.688;2023-05-29T02:07:10;14.7;58.0
78516;SHT31;67815;51.990;5.688;2023-05-29T02:09:43;14.7;58.2
78516;SHT31;67815;51.990;5.688;2023-05-29T02:12:12;14.7;58.1
78516;SHT31;67815;51.990;5.688;2023-05-29T02:14:42;14.7;58.3
78516;SHT31;67815;51.990;5.688;2023-05-29T02:17:12;14.6;58.3
78516;SHT31;67815;51.990;5.688;2023-05-29T02:19:42;14.6;58.3
78516;SHT31;67815;51.990;5.688;2023-05-29T02:22:12;14.6;58.5
78516;SHT31;67815;51.990;5.688;2023-05-29T02:24:42;14.6;58.6
78516;SHT31;67815;51.990;5.688;2023-05-29T02:27:12;14.5;58.7
78516;SHT31;67815;51.990;5.688;2023-05-29T02:29:41;14.5;58.8
78516;SHT31;67815;51.990;5.688;2023-05-29T02:32:12;14.4;58.8
78516;SHT31;67815;51.990;5.688;2023-05-29T02:34:43;14.4;58.8
78516;SHT31;67815;51.990;5.688;2023-05-29T02:37:14;14.4;58.9
78516;SHT31;67815;51.990;5.688;2023-05-29T02:39:43;14.3;59.1
78516;SHT31;67815;51.990;5.688;2023-05-29T02:42:13;14.3;59.2
78516;SHT31;67815;51.990;5.688;2023-05-29T02:44:42;14.3;59.1
78516;SHT31;67815;51.990;5.688;2023-05-29T02:47:13;14.3;59.1
78516;SHT31;67815;51.990;5.688;2023-05-29T02:49:43;14.2;59.3
78516;SHT31;67815;51.990;5.688;2023-05-29T02:52:12;14.2;59.3
78516;SHT31;67815;51.990;5.688;2023-05-29T02:54:42;14.2;59.4
78516;SHT31;67815;51.990;5.688;2023-05-29T02:57:12;14.2;59.4
78516;SHT31;67815;51.990;5.688;2023-05-29T02:59:42;14.1;59.5
78516;SHT31;67815;51.990;5.688;2023-05-29T03:02:13;14.1;59.5
78516;SHT31;67815;51.990;5.688;2023-05-29T03:04:42;14.1;59.6
78516;SHT31;67815;51.990;5.688;2023-05-29T03:07:12;14.0;59.7
78516;SHT31;67815;51.990;5.688;2023-05-29T03:09:42;14.0;59.7
78516;SHT31;67815;51.990;5.688;2023-05-29T03:12:11;14.0;59.7
78516;SHT31;67815;51.990;5.688;2023-05-29T03:14:41;13.9;59.7
78516;SHT31;67815;51.990;5.688;2023-05-29T03:17:10;13.9;59.9
78516;SHT31;67815;51.990;5.688;2023-05-29T03:19:40;13.9;59.9
78516;SHT31;67815;51.990;5.688;2023-05-29T03:22:09;13.8;59.9
78516;SHT31;67815;51.990;5.688;2023-05-29T03:24:39;13.8;60.0
78516;SHT31;67815;51.990;5.688;2023-05-29T03:27:10;13.7;60.1
78516;SHT31;67815;51.990;5.688;2023-05-29T03:29:40;13.7;60.1
78516;SHT31;67815;51.990;5.688;2023-05-29T03:32:11;13.7;60.2
78516;SHT31;67815;51.990;5.688;2023-05-29T03:34:41;13.7;60.1
78516;SHT31;67815;51.990;5.688;2023-05-29T03:37:10;13.6;60.1
78516;SHT31;67815;51.990;5.688;2023-05-29T03:39:40;13.6;60.0
78516;SHT31;67815;51.990;5.688;2023-05-29T03:42:12;13.6;60.1
78516;SHT31;67815;51.990;5.688;2023-05-29T03:44:42;13.6;60.3
78516;SHT31;67815;51.990;5.688;2023-05-29T03:47:12;13.5;60.5
78516;SHT31;67815;51.990;5.688;2023-05-29T03:49:42;13.5;60.4
78516;SHT31;67815;51.990;5.688;2023-05-29T03:52:12;13.5;60.4
78516;SHT31;67815;51.990;5.688;2023-05-29T03:54:42;13.5;60.4
78516;SHT31;67815;51.990;5.688;2023-05-29T03:57:12;13.4;60.4
78516;SHT31;67815;51.990;5.688;2023-05-29T03:59:42;13.4;60.7
78516;SHT31;67815;51.990;5.688;2023-05-29T04:02:12;13.4;60.6
78516;SHT31;67815;51.990;5.688;2023-05-29T04:04:42;13.4;60.8
78516;SHT31;67815;51.990;5.688;2023-05-29T04:07:12;13.4;60.6
78516;SHT31;67815;51.990;5.688;2023-05-29T04:09:42;13.4;60.5
78516;SHT31;67815;51.990;5.688;2023-05-29T04:12:12;13.4;60.5
78516;SHT31;67815;51.990;5.688;2023-05-29T04:14:43;13.4;60.3
78516;SHT31;67815;51.990;5.688;2023-05-29T04:17:12;13.3;60.2
78516;SHT31;67815;51.990;5.688;2023-05-29T04:19:42;13.3;60.3
78516;SHT31;67815;51.990;5.688;2023-05-29T04:22:11;13.3;60.2
78516;SHT31;67815;51.990;5.688;2023-05-29T04:24:41;13.3;60.4
78516;SHT31;67815;51.990;5.688;2023-05-29T04:27:11;13.3;60.1
78516;SHT31;67815;51.990;5.688;2023-05-29T04:29:40;13.3;60.3
78516;SHT31;67815;51.990;5.688;2023-05-29T04:32:10;13.3;60.2
78516;SHT31;67815;51.990;5.688;2023-05-29T04:34:40;13.3;60.0
78516;SHT31;67815;51.990;5.688;2023-05-29T04:37:11;13.3;60.2
78516;SHT31;67815;51.990;5.688;2023-05-29T04:39:42;13.3;60.2
78516;SHT31;67815;51.990;5.688;2023-05-29T04:42:12;13.3;60.4
78516;SHT31;67815;51.990;5.688;2023-05-29T04:44:42;13.3;60.1
78516;SHT31;67815;51.990;5.688;2023-05-29T04:47:12;13.3;60.2
78516;SHT31;67815;51.990;5.688;2023-05-29T04:49:44;13.3;60.5
78516;SHT31;67815;51.990;5.688;2023-05-29T04:52:16;13.3;60.2
78516;SHT31;67815;51.990;5.688;2023-05-29T04:54:46;13.3;60.2
78516;SHT31;67815;51.990;5.688;2023-05-29T04:57:15;13.3;60.2
78516;SHT31;67815;51.990;5.688;2023-05-29T04:59:45;13.3;60.5
78516;SHT31;67815;51.990;5.688;2023-05-29T05:02:14;13.2;60.5
78516;SHT31;67815;51.990;5.688;2023-05-29T05:04:44;13.2;60.7
78516;SHT31;67815;51.990;5.688;2023-05-29T05:07:14;13.2;60.5
78516;SHT31;67815;51.990;5.688;2023-05-29T05:09:44;13.2;60.3
78516;SHT31;67815;51.990;5.688;2023-05-29T05:12:14;13.2;60.1
78516;SHT31;67815;51.990;5.688;2023-05-29T05:14:43;13.2;60.0
78516;SHT31;67815;51.990;5.688;2023-05-29T05:17:13;13.2;60.4
78516;SHT31;67815;51.990;5.688;2023-05-29T05:19:43;13.2;60.0
78516;SHT31;67815;51.990;5.688;2023-05-29T05:22:13;13.2;60.0
78516;SHT31;67815;51.990;5.688;2023-05-29T05:24:42;13.2;60.1
78516;SHT31;67815;51.990;5.688;2023-05-29T05:27:12;13.1;60.2
78516;SHT31;67815;51.990;5.688;2023-05-29T05:29:42;13.1;60.0
78516;SHT31;67815;51.990;5.688;2023-05-29T05:32:12;13.1;60.1
78516;SHT31;67815;51.990;5.688;2023-05-29T05:34:42;13.1;60.5
78516;SHT31;67815;51.990;5.688;2023-05-29T05:37:14;13.2;60.3
78516;SHT31;67815;51.990;5.688;2023-05-29T05:39:43;13.2;59.8
78516;SHT31;67815;51.990;5.688;2023-05-29T05:42:15;13.2;60.2
78516;SHT31;67815;51.990;5.688;2023-05-29T05:44:44;13.2;59.4
78516;SHT31;67815;51.990;5.688;2023-05-29T05:47:15;13.2;59.5
78516;SHT31;67815;51.990;5.688;2023-05-29T05:49:44;13.2;59.9
78516;SHT31;67815;51.990;5.688;2023-05-29T05:52:16;13.2;59.1
78516;SHT31;67815;51.990;5.688;2023-05-29T05:54:46;13.2;58.9
78516;SHT31;67815;51.990;5.688;2023-05-29T05:57:17;13.2;58.6
78516;SHT31;67815;51.990;5.688;2023-05-29T05:59:47;13.2;58.7
78516;SHT31;67815;51.990;5.688;2023-05-29T06:02:17;13.2;58.4
78516;SHT31;67815;51.990;5.688;2023-05-29T06:04:47;13.3;57.9
78516;SHT31;67815;51.990;5.688;2023-05-29T06:07:17;13.3;57.9
78516;SHT31;67815;51.990;5.688;2023-05-29T06:09:48;13.3;58.0
78516;SHT31;67815;51.990;5.688;2023-05-29T06:12:17;13.3;58.0
78516;SHT31;67815;51.990;5.688;2023-05-29T06:14:47;13.3;58.1
78516;SHT31;67815;51.990;5.688;2023-05-29T06:17:17;13.3;58.2
78516;SHT31;67815;51.990;5.688;2023-05-29T06:19:46;13.3;57.3
78516;SHT31;67815;51.990;5.688;2023-05-29T06:22:16;13.4;57.0
78516;SHT31;67815;51.990;5.688;2023-05-29T06:24:46;13.4;56.4
78516;SHT31;67815;51.990;5.688;2023-05-29T06:27:16;13.4;56.8
78516;SHT31;67815;51.990;5.688;2023-05-29T06:29:46;13.5;56.9
78516;SHT31;67815;51.990;5.688;2023-05-29T06:32:15;13.5;56.3
78516;SHT31;67815;51.990;5.688;2023-05-29T06:34:45;13.5;57.0
78516;SHT31;67815;51.990;5.688;2023-05-29T06:37:15;13.5;56.4
78516;SHT31;67815;51.990;5.688;2023-05-29T06:39:46;13.6;56.1
78516;SHT31;67815;51.990;5.688;2023-05-29T06:42:16;13.6;56.0
78516;SHT31;67815;51.990;5.688;2023-05-29T06:44:45;13.6;56.1
78516;SHT31;67815;51.990;5.688;2023-05-29T06:47:15;13.6;56.0
78516;SHT31;67815;51.990;5.688;2023-05-29T06:49:44;13.6;55.8
78516;SHT31;67815;51.990;5.688;2023-05-29T06:52:16;13.7;56.1
78516;SHT31;67815;51.990;5.688;2023-05-29T06:54:45;13.7;55.6
78516;SHT31;67815;51.990;5.688;2023-05-29T06:57:15;13.8;56.5
78516;SHT31;67815;51.990;5.688;2023-05-29T06:59:46;13.8;55.7
78516;SHT31;67815;51.990;5.688;2023-05-29T07:02:16;13.9;54.9
78516;SHT31;67815;51.990;5.688;2023-05-29T07:04:47;13.9;54.5
78516;SHT31;67815;51.990;5.688;2023-05-29T07:07:18;14.0;54.9
78516;SHT31;67815;51.990;5.688;2023-05-29T07:09:48;14.0;55.7
78516;SHT31;67815;51.990;5.688;2023-05-29T07:12:17;14.0;55.3
78516;SHT31;67815;51.990;5.688;2023-05-29T07:14:47;14.1;54.9
78516;SHT31;67815;51.990;5.688;2023-05-29T07:17:18;14.1;54.6
78516;SHT31;67815;51.990;5.688;2023-05-29T07:19:48;14.2;53.1
78516;SHT31;67815;51.990;5.688;2023-05-29T07:22:18;14.2;53.1
78516;SHT31;67815;51.990;5.688;2023-05-29T07:24:47;14.3;53.9
78516;SHT31;67815;51.990;5.688;2023-05-29T07:27:17;14.3;53.5
78516;SHT31;67815;51.990;5.688;2023-05-29T07:29:46;14.4;53.6
78516;SHT31;67815;51.990;5.688;2023-05-29T07:32:19;14.4;54.3
78516;SHT31;67815;51.990;5.688;2023-05-29T07:34:49;14.4;55.1
78516;SHT31;67815;51.990;5.688;2023-05-29T07:37:19;14.5;54.0
78516;SHT31;67815;51.990;5.688;2023-05-29T07:39:48;14.6;54.0
78516;SHT31;67815;51.990;5.688;2023-05-29T07:42:20;14.6;54.6
78516;SHT31;67815;51.990;5.688;2023-05-29T07:44:49;14.7;53.4
78516;SHT31;67815;51.990;5.688;2023-05-29T07:47:19;14.7;53.2
78516;SHT31;67815;51.990;5.688;2023-05-29T07:49:48;14.8;53.3
78516;SHT31;67815;51.990;5.688;2023-05-29T07:52:19;14.8;53.3
78516;SHT31;67815;51.990;5.688;2023-05-29T07:54:52;14.9;53.5
78516;SHT31;67815;51.990;5.688;2023-05-29T07:57:21;14.9;53.7
78516;SHT31;67815;51.990;5.688;2023-05-29T07:59:52;15.0;53.6
78516;SHT31;67815;51.990;5.688;2023-05-29T08:02:22;15.0;53.4
78516;SHT31;67815;51.990;5.688;2023-05-29T08:04:51;15.1;53.5
78516;SHT31;67815;51.990;5.688;2023-05-29T08:07:21;15.1;53.0
78516;SHT31;67815;51.990;5.688;2023-05-29T08:09:51;15.2;53.5
78516;SHT31;67815;51.990;5.688;2023-05-29T08:12:20;15.2;52.4
78516;SHT31;67815;51.990;5.688;2023-05-29T08:14:50;15.2;51.5
78516;SHT31;67815;51.990;5.688;2023-05-29T08:17:20;15.3;52.3
78516;SHT31;67815;51.990;5.688;2023-05-29T08:19:49;15.3;52.1
78516;SHT31;67815;51.990;5.688;2023-05-29T08:22:19;15.3;51.5
78516;SHT31;67815;51.990;5.688;2023-05-29T08:24:50;15.4;51.2
78516;SHT31;67815;51.990;5.688;2023-05-29T08:27:19;15.4;52.5
78516;SHT31;67815;51.990;5.688;2023-05-29T08:29:49;15.4;52.3
78516;SHT31;67815;51.990;5.688;2023-05-29T08:32:18;15.5;52.1
78516;SHT31;67815;51.990;5.688;2023-05-29T08:34:48;15.5;50.6
78516;SHT31;67815;51.990;5.688;2023-05-29T08:37:18;15.6;50.8
78516;SHT31;67815;51.990;5.688;2023-05-29T08:39:48;15.6;51.0
78516;SHT31;67815;51.990;5.688;2023-05-29T08:42:21;15.6;52.0
78516;SHT31;67815;51.990;5.688;2023-05-29T08:45:02;15.7;51.8
78516;SHT31;67815;51.990;5.688;2023-05-29T08:47:33;15.7;51.9
78516;SHT31;67815;51.990;5.688;2023-05-29T08:50:05;15.8;52.3
78516;SHT31;67815;51.990;5.688;2023-05-29T08:52:35;15.8;51.0
78516;SHT31;67815;51.990;5.688;2023-05-29T08:55:06;15.9;51.8
78516;SHT31;67815;51.990;5.688;2023-05-29T08:57:37;15.9;51.1
78516;SHT31;67815;51.990;5.688;2023-05-29T09:00:11;16.0;51.6
78516;SHT31;67815;51.990;5.688;2023-05-29T09:02:42;16.0;50.5
78516;SHT31;67815;51.990;5.688;2023-05-29T09:05:13;16.0;51.2
78516;SHT31;67815;51.990;5.688;2023-05-29T09:07:43;16.1;50.4
78516;SHT31;67815;51.990;5.688;2023-05-29T09:10:12;16.1;50.5
78516;SHT31;67815;51.990;5.688;2023-05-29T09:12:43;16.1;51.7
78516;SHT31;67815;51.990;5.688;2023-05-29T09:15:20;16.2;51.2
78516;SHT31;67815;51.990;5.688;2023-05-29T09:17:54;16.2;51.8
78516;SHT31;67815;51.990;5.688;2023-05-29T09:20:25;16.2;50.8
78516;SHT31;67815;51.990;5.688;2023-05-29T09:22:58;16.3;50.7
78516;SHT31;67815;51.990;5.688;2023-05-29T09:25:30;16.3;50.6
78516;SHT31;67815;51.990;5.688;2023-05-29T09:28:03;16.4;50.2
78516;SHT31;67815;51.990;5.688;2023-05-29T09:30:37;16.4;50.5
78516;SHT31;67815;51.990;5.688;2023-05-29T09:33:10;16.5;49.9
78516;SHT31;67815;51.990;5.688;2023-05-29T09:35:41;16.5;50.0
78516;SHT31;67815;51.990;5.688;2023-05-29T09:38:13;16.6;48.5
78516;SHT31;67815;51.990;5.688;2023-05-29T09:40:44;16.6;49.5
78516;SHT31;67815;51.990;5.688;2023-05-29T09:43:16;16.6;49.3
78516;SHT31;67815;51.990;5.688;2023-05-29T09:45:48;16.7;50.0
78516;SHT31;67815;51.990;5.688;2023-05-29T09:48:22;16.8;47.9
78516;SHT31;67815;51.990;5.688;2023-05-29T09:50:54;16.8;47.9
78516;SHT31;67815;51.990;5.688;2023-05-29T09:53:26;16.9;49.1
78516;SHT31;67815;51.990;5.688;2023-05-29T09:55:57;16.9;47.4
78516;SHT31;67815;51.990;5.688;2023-05-29T09:58:28;17.0;46.8
78516;SHT31;67815;51.990;5.688;2023-05-29T10:00:59;17.0;46.7
78516;SHT31;67815;51.990;5.688;2023-05-29T10:03:31;17.0;47.0
78516;SHT31;67815;51.990;5.688;2023-05-29T10:06:04;17.1;47.6
78516;SHT31;67815;51.990;5.688;2023-05-29T10:08:37;17.1;47.7
78516;SHT31;67815;51.990;5.688;2023-05-29T10:11:11;17.2;46.4
78516;SHT31;67815;51.990;5.688;2023-05-29T10:13:45;17.2;46.6
78516;SHT31;67815;51.990;5.688;2023-05-29T10:16:21;17.2;46.6
78516;SHT31;67815;51.990;5.688;2023-05-29T10:18:54;17.3;46.0
78516;SHT31;67815;51.990;5.688;2023-05-29T10:21:27;17.3;46.2
78516;SHT31;67815;51.990;5.688;2023-05-29T10:23:58;17.4;45.8
78516;SHT31;67815;51.990;5.688;2023-05-29T10:26:33;17.4;46.4
78516;SHT31;67815;51.990;5.688;2023-05-29T10:29:13;17.5;44.1
78516;SHT31;67815;51.990;5.688;2023-05-29T10:32:00;17.5;43.0
78516;SHT31;67815;51.990;5.688;2023-05-29T10:34:33;17.5;42.2
78516;SHT31;67815;51.990;5.688;2023-05-29T10:37:14;17.6;42.7
78516;SHT31;67815;51.990;5.688;2023-05-29T10:39:46;17.6;43.0
78516;SHT31;67815;51.990;5.688;2023-05-29T10:43:00;17.6;43.9
78516;SHT31;67815;51.990;5.688;2023-05-29T10:45:51;17.7;42.5
78516;SHT31;67815;51.990;5.688;2023-05-29T10:48:40;17.7;43.4
78516;SHT31;67815;51.990;5.688;2023-05-29T10:51:26;17.8;43.1
78516;SHT31;67815;51.990;5.688;2023-05-29T10:53:58;17.8;44.8
78516;SHT31;67815;51.990;5.688;2023-05-29T10:56:29;17.9;43.0
78516;SHT31;67815;51.990;5.688;2023-05-29T10:59:00;17.9;41.9
78516;SHT31;67815;51.990;5.688;2023-05-29T11:01:32;18.0;41.3
78516;SHT31;67815;51.990;5.688;2023-05-29T11:04:44;18.0;41.9
78516;SHT31;67815;51.990;5.688;2023-05-29T11:07:34;18.1;42.3
78516;SHT31;67815;51.990;5.688;2023-05-29T11:10:14;18.1;42.6
78516;SHT31;67815;51.990;5.688;2023-05-29T11:12:58;18.2;41.8
78516;SHT31;67815;51.990;5.688;2023-05-29T11:15:29;18.2;42.9
78516;SHT31;67815;51.990;5.688;2023-05-29T11:18:08;18.2;42.7
78516;SHT31;67815;51.990;5.688;2023-05-29T11:20:52;18.2;42.5
78516;SHT31;67815;51.990;5.688;2023-05-29T11:23:31;18.3;41.7
78516;SHT31;67815;51.990;5.688;2023-05-29T11:26:05;18.3;42.1
78516;SHT31;67815;51.990;5.688;2023-05-29T11:28:38;18.4;40.9
78516;SHT31;67815;51.990;5.688;2023-05-29T11:31:09;18.4;42.0
78516;SHT31;67815;51.990;5.688;2023-05-29T11:33:41;18.4;40.1
78516;SHT31;67815;51.990;5.688;2023-05-29T11:36:16;18.5;41.0
78516;SHT31;67815;51.990;5.688;2023-05-29T11:38:49;18.5;40.2
78516;SHT31;67815;51.990;5.688;2023-05-29T11:41:20;18.6;39.5
78516;SHT31;67815;51.990;5.688;2023-05-29T11:43:58;18.6;40.3
78516;SHT31;67815;51.990;5.688;2023-05-29T11:46:29;18.6;39.6
78516;SHT31;67815;51.990;5.688;2023-05-29T11:49:02;18.7;40.9
78516;SHT31;67815;51.990;5.688;2023-05-29T11:51:31;18.7;42.3
78516;SHT31;67815;51.990;5.688;2023-05-29T11:54:01;18.8;42.0
78516;SHT31;67815;51.990;5.688;2023-05-29T11:56:30;18.8;40.7
78516;SHT31;67815;51.990;5.688;2023-05-29T11:59:01;18.9;40.2
78516;SHT31;67815;51.990;5.688;2023-05-29T12:01:36;18.9;40.4
78516;SHT31;67815;51.990;5.688;2023-05-29T12:04:15;19.0;40.6
78516;SHT31;67815;51.990;5.688;2023-05-29T12:06:45;19.0;38.9
78516;SHT31;67815;51.990;5.688;2023-05-29T12:09:25;19.0;38.5
78516;SHT31;67815;51.990;5.688;2023-05-29T12:12:03;19.0;39.2
78516;SHT31;67815;51.990;5.688;2023-05-29T12:14:33;19.1;41.3
78516;SHT31;67815;51.990;5.688;2023-05-29T12:17:03;19.1;41.3
78516;SHT31;67815;51.990;5.688;2023-05-29T12:19:34;19.1;39.9
78516;SHT31;67815;51.990;5.688;2023-05-29T12:22:04;19.2;39.5
78516;SHT31;67815;51.990;5.688;2023-05-29T12:24:34;19.2;39.5
78516;SHT31;67815;51.990;5.688;2023-05-29T12:27:06;19.3;38.7
78516;SHT31;67815;51.990;5.688;2023-05-29T12:29:36;19.3;38.2
78516;SHT31;67815;51.990;5.688;2023-05-29T12:32:09;19.3;39.6
78516;SHT31;67815;51.990;5.688;2023-05-29T12:34:38;19.3;38.9
78516;SHT31;67815;51.990;5.688;2023-05-29T12:37:10;19.3;38.0
78516;SHT31;67815;51.990;5.688;2023-05-29T12:39:41;19.3;37.7
78516;SHT31;67815;51.990;5.688;2023-05-29T12:42:13;19.3;37.5
78516;SHT31;67815;51.990;5.688;2023-05-29T12:44:43;19.4;38.0
78516;SHT31;67815;51.990;5.688;2023-05-29T12:47:25;19.4;39.4
78516;SHT31;67815;51.990;5.688;2023-05-29T12:49:55;19.4;37.5
78516;SHT31;67815;51.990;5.688;2023-05-29T12:52:25;19.4;37.7
78516;SHT31;67815;51.990;5.688;2023-05-29T12:54:55;19.5;37.9
78516;SHT31;67815;51.990;5.688;2023-05-29T12:57:24;19.5;37.9
78516;SHT31;67815;51.990;5.688;2023-05-29T12:59:54;19.5;36.9
78516;SHT31;67815;51.990;5.688;2023-05-29T13:02:24;19.5;35.5
78516;SHT31;67815;51.990;5.688;2023-05-29T13:04:53;19.6;36.9
78516;SHT31;67815;51.990;5.688;2023-05-29T13:07:23;19.6;36.7
78516;SHT31;67815;51.990;5.688;2023-05-29T13:09:55;19.6;36.8
78516;SHT31;67815;51.990;5.688;2023-05-29T13:12:27;19.7;35.8
78516;SHT31;67815;51.990;5.688;2023-05-29T13:14:56;19.7;35.8
78516;SHT31;67815;51.990;5.688;2023-05-29T13:17:26;19.8;35.5
78516;SHT31;67815;51.990;5.688;2023-05-29T13:19:55;19.8;36.4
78516;SHT31;67815;51.990;5.688;2023-05-29T13:22:25;19.8;35.9
78516;SHT31;67815;51.990;5.688;2023-05-29T13:24:59;19.9;35.9
78516;SHT31;67815;51.990;5.688;2023-05-29T13:27:29;19.9;34.5
78516;SHT31;67815;51.990;5.688;2023-05-29T13:29:58;20.0;33.7
78516;SHT31;67815;51.990;5.688;2023-05-29T13:32:28;20.0;34.3
78516;SHT31;67815;51.990;5.688;2023-05-29T13:34:58;20.1;31.9
78516;SHT31;67815;51.990;5.688;2023-05-29T13:37:28;20.1;32.7
78516;SHT31;67815;51.990;5.688;2023-05-29T13:39:58;20.1;31.6
78516;SHT31;67815;51.990;5.688;2023-05-29T13:42:28;20.1;31.7
78516;SHT31;67815;51.990;5.688;2023-05-29T13:44:58;20.1;32.9
78516;SHT31;67815;51.990;5.688;2023-05-29T13:47:27;20.2;33.6
78516;SHT31;67815;51.990;5.688;2023-05-29T13:49:59;20.2;34.5
78516;SHT31;67815;51.990;5.688;2023-05-29T13:52:31;20.2;34.6
78516;SHT31;67815;51.990;5.688;2023-05-29T13:55:01;20.2;33.8
78516;SHT31;67815;51.990;5.688;2023-05-29T13:57:35;20.2;32.6
78516;SHT31;67815;51.990;5.688;2023-05-29T14:00:09;20.2;32.5
78516;SHT31;67815;51.990;5.688;2023-05-29T14:02:39;20.2;32.9
78516;SHT31;67815;51.990;5.688;2023-05-29T14:05:09;20.2;34.9
78516;SHT31;67815;51.990;5.688;2023-05-29T14:07:39;20.3;34.9
78516;SHT31;67815;51.990;5.688;2023-05-29T14:10:10;20.3;35.6
78516;SHT31;67815;51.990;5.688;2023-05-29T14:12:39;20.3;34.0
78516;SHT31;67815;51.990;5.688;2023-05-29T14:15:10;20.4;35.2
78516;SHT31;67815;51.990;5.688;2023-05-29T14:17:40;20.4;33.9
78516;SHT31;67815;51.990;5.688;2023-05-29T14:20:10;20.5;34.3
78516;SHT31;67815;51.990;5.688;2023-05-29T14:22:40;20.5;36.0
78516;SHT31;67815;51.990;5.688;2023-05-29T14:25:10;20.5;35.8
78516;SHT31;67815;51.990;5.688;2023-05-29T14:27:39;20.6;35.3
78516;SHT31;67815;51.990;5.688;2023-05-29T14:30:10;20.6;35.9
78516;SHT31;67815;51.990;5.688;2023-05-29T14:32:40;20.7;36.0
78516;SHT31;67815;51.990;5.688;2023-05-29T14:35:11;20.7;35.5
78516;SHT31;67815;51.990;5.688;2023-05-29T14:37:42;20.8;34.9
78516;SHT31;67815;51.990;5.688;2023-05-29T14:40:13;20.8;35.5
78516;SHT31;67815;51.990;5.688;2023-05-29T14:42:42;20.9;35.2
78516;SHT31;67815;51.990;5.688;2023-05-29T14:45:14;20.9;34.8
78516;SHT31;67815;51.990;5.688;2023-05-29T14:47:44;20.9;35.1
78516;SHT31;67815;51.990;5.688;2023-05-29T14:50:14;21.0;33.4
78516;SHT31;67815;51.990;5.688;2023-05-29T14:52:44;21.0;32.9
78516;SHT31;67815;51.990;5.688;2023-05-29T14:55:15;21.0;34.2
78516;SHT31;67815;51.990;5.688;2023-05-29T14:57:44;21.0;34.9
78516;SHT31;67815;51.990;5.688;2023-05-29T15:00:15;21.1;33.7
78516;SHT31;67815;51.990;5.688;2023-05-29T15:02:44;21.1;34.0
78516;SHT31;67815;51.990;5.688;2023-05-29T15:05:16;21.1;33.2
78516;SHT31;67815;51.990;5.688;2023-05-29T15:07:46;21.1;31.9
78516;SHT31;67815;51.990;5.688;2023-05-29T15:10:16;21.1;31.1
78516;SHT31;67815;51.990;5.688;2023-05-29T15:12:48;21.1;31.5
78516;SHT31;67815;51.990;5.688;2023-05-29T15:15:19;21.1;32.7
78516;SHT31;67815;51.990;5.688;2023-05-29T15:17:49;21.1;31.6
78516;SHT31;67815;51.990;5.688;2023-05-29T15:20:22;21.2;32.0
78516;SHT31;67815;51.990;5.688;2023-05-29T15:22:53;21.1;31.9
78516;SHT31;67815;51.990;5.688;2023-05-29T15:25:22;21.1;32.1
78516;SHT31;67815;51.990;5.688;2023-05-29T15:27:52;21.1;32.6
78516;SHT31;67815;51.990;5.688;2023-05-29T15:30:23;21.1;31.1
78516;SHT31;67815;51.990;5.688;2023-05-29T15:32:52;21.1;33.3
78516;SHT31;67815;51.990;5.688;2023-05-29T15:35:22;21.1;32.3
78516;SHT31;67815;51.990;5.688;2023-05-29T15:37:52;21.1;31.5
78516;SHT31;67815;51.990;5.688;2023-05-29T15:40:24;21.1;32.4
78516;SHT31;67815;51.990;5.688;2023-05-29T15:42:53;21.1;33.0
78516;SHT31;67815;51.990;5.688;2023-05-29T15:45:23;21.1;33.1
78516;SHT31;67815;51.990;5.688;2023-05-29T15:47:53;21.1;32.9
78516;SHT31;67815;51.990;5.688;2023-05-29T15:50:25;21.1;32.9
78516;SHT31;67815;51.990;5.688;2023-05-29T15:52:54;21.1;32.2
78516;SHT31;67815;51.990;5.688;2023-05-29T15:55:24;21.1;31.6
78516;SHT31;67815;51.990;5.688;2023-05-29T15:57:54;21.2;31.8
78516;SHT31;67815;51.990;5.688;2023-05-29T16:00:24;21.2;31.3
78516;SHT31;67815;51.990;5.688;2023-05-29T16:02:53;21.2;32.3
78516;SHT31;67815;51.990;5.688;2023-05-29T16:05:23;21.2;33.0
78516;SHT31;67815;51.990;5.688;2023-05-29T16:07:53;21.2;33.1
78516;SHT31;67815;51.990;5.688;2023-05-29T16:10:22;21.2;32.6
78516;SHT31;67815;51.990;5.688;2023-05-29T16:12:53;21.2;32.5
78516;SHT31;67815;51.990;5.688;2023-05-29T16:15:23;21.2;34.1
78516;SHT31;67815;51.990;5.688;2023-05-29T16:17:53;21.1;34.6
78516;SHT31;67815;51.990;5.688;2023-05-29T16:20:22;21.1;34.7
78516;SHT31;67815;51.990;5.688;2023-05-29T16:22:52;21.1;34.3
78516;SHT31;67815;51.990;5.688;2023-05-29T16:25:23;21.1;34.1
78516;SHT31;67815;51.990;5.688;2023-05-29T16:27:53;21.1;32.3